createdAt,value
2022-07-31T00:01:20.769Z,28.20
2022-07-31T00:03:25.437Z,28.10
2022-07-31T00:05:30.152Z,28.10
2022-07-31T00:07:39.094Z,28.20
2022-07-31T00:09:49.246Z,28.30
2022-07-31T00:11:58.681Z,28.30
2022-07-31T00:14:07.370Z,28.40
2022-07-31T00:16:11.757Z,28.50
2022-07-31T00:18:16.462Z,28.60
2022-07-31T00:20:25.289Z,28.70
2022-07-31T00:22:30.168Z,28.60
2022-07-31T00:24:34.896Z,28.70
2022-07-31T00:26:44.076Z,28.80
2022-07-31T00:28:49.167Z,28.80
2022-07-31T00:30:53.936Z,28.90
2022-07-31T00:32:58.486Z,29.00
2022-07-31T00:35:03.011Z,29.00
2022-07-31T00:37:07.691Z,29.10
2022-07-31T00:39:14.583Z,29.00
2022-07-31T00:41:19.069Z,29.00
2022-07-31T00:43:24.024Z,29.00
2022-07-31T00:45:35.936Z,29.10
2022-07-31T00:47:42.472Z,29.00
2022-07-31T00:49:47.438Z,29.10
2022-07-31T00:51:53.719Z,29.10
2022-07-31T00:53:58.416Z,29.20
2022-07-31T00:56:02.862Z,29.20
2022-07-31T00:58:10.116Z,29.20
2022-07-31T01:00:15.473Z,29.20
2022-07-31T01:02:20.074Z,29.20
2022-07-31T01:04:25.001Z,29.30
2022-07-31T01:06:30.225Z,29.40
2022-07-31T01:08:34.694Z,29.50
2022-07-31T01:11:10.083Z,29.50
2022-07-31T01:13:42.329Z,29.60
2022-07-31T01:15:47.116Z,29.70
2022-07-31T01:17:51.728Z,29.80
2022-07-31T01:19:56.545Z,29.90
2022-07-31T01:22:33.362Z,30.00
2022-07-31T01:25:06.516Z,30.20
2022-07-31T01:27:32.647Z,30.30
2022-07-31T01:29:57.672Z,30.40
2022-07-31T01:32:14.882Z,30.40
2022-07-31T01:34:44.164Z,30.50
2022-07-31T01:36:53.289Z,30.40
2022-07-31T01:39:00.091Z,30.40
2022-07-31T01:41:05.965Z,30.50
2022-07-31T01:43:16.471Z,30.50
2022-07-31T01:45:22.863Z,30.50
2022-07-31T01:47:30.292Z,30.50
2022-07-31T01:49:34.987Z,30.50
2022-07-31T01:51:42.316Z,30.60
2022-07-31T01:53:48.144Z,30.50
2022-07-31T01:56:03.714Z,30.60
2022-07-31T01:58:12.668Z,30.70
2022-07-31T02:00:33.676Z,30.90
2022-07-31T02:02:42.277Z,30.90
2022-07-31T02:04:48.253Z,30.90
2022-07-31T02:06:54.699Z,30.90
2022-07-31T02:08:59.628Z,30.90
2022-07-31T02:11:06.044Z,30.90
2022-07-31T02:13:15.372Z,30.90
2022-07-31T02:15:19.967Z,31.00
2022-07-31T02:17:28.034Z,30.90
2022-07-31T02:19:52.535Z,30.90
2022-07-31T02:22:06.271Z,30.90
2022-07-31T02:24:13.085Z,30.90
2022-07-31T02:26:20.019Z,31.00
2022-07-31T02:28:24.539Z,31.00
2022-07-31T02:30:39.646Z,31.00
2022-07-31T02:32:50.021Z,31.00
2022-07-31T02:34:56.880Z,31.00
2022-07-31T02:37:04.125Z,31.10
2022-07-31T02:39:10.801Z,31.20
2022-07-31T02:41:15.557Z,31.40
2022-07-31T02:43:22.380Z,31.40
2022-07-31T02:45:27.619Z,31.40
2022-07-31T02:47:32.604Z,31.50
2022-07-31T02:49:41.956Z,31.50
2022-07-31T02:51:46.934Z,31.50
2022-07-31T02:53:52.477Z,31.70
2022-07-31T02:56:01.295Z,31.80
2022-07-31T02:58:10.086Z,31.80
2022-07-31T03:00:24.043Z,31.80
2022-07-31T03:02:36.911Z,31.90
2022-07-31T03:04:43.158Z,31.90
2022-07-31T03:06:49.662Z,31.80
2022-07-31T03:08:56.290Z,31.90
2022-07-31T03:11:02.041Z,31.90
2022-07-31T03:13:06.774Z,31.90
2022-07-31T03:15:14.216Z,31.90
2022-07-31T03:17:21.013Z,31.80
2022-07-31T03:19:25.788Z,32.00
2022-07-31T03:21:32.622Z,32.10
2022-07-31T03:23:39.190Z,32.10
2022-07-31T03:25:53.913Z,32.20
2022-07-31T03:28:01.245Z,32.30
2022-07-31T03:30:08.388Z,32.30
2022-07-31T03:32:13.517Z,32.40
2022-07-31T03:34:18.351Z,32.50
2022-07-31T03:36:26.105Z,32.60
2022-07-31T03:38:42.144Z,32.60
2022-07-31T03:41:04.191Z,32.60
2022-07-31T03:43:10.386Z,32.60
2022-07-31T03:45:16.228Z,32.90
2022-07-31T03:47:23.442Z,32.90
2022-07-31T03:49:28.496Z,33.00
2022-07-31T03:51:33.599Z,33.10
2022-07-31T03:53:39.965Z,33.10
2022-07-31T03:55:45.147Z,33.10
2022-07-31T03:57:50.171Z,33.00
2022-07-31T04:00:00.021Z,33.00
2022-07-31T04:02:10.318Z,32.90
2022-07-31T04:04:19.876Z,32.80
2022-07-31T04:06:37.096Z,32.70
2022-07-31T04:08:42.054Z,32.70
2022-07-31T04:10:47.295Z,32.70
2022-07-31T04:12:55.497Z,32.80
2022-07-31T04:15:03.293Z,32.70
2022-07-31T04:17:08.044Z,32.70
2022-07-31T04:19:13.244Z,32.60
2022-07-31T04:21:17.786Z,32.60
2022-07-31T04:23:22.742Z,32.60
2022-07-31T04:25:51.323Z,32.60
2022-07-31T04:28:10.207Z,32.60
2022-07-31T04:30:16.584Z,32.60
2022-07-31T04:32:25.413Z,32.50
2022-07-31T04:34:35.126Z,32.50
2022-07-31T04:36:43.705Z,32.60
2022-07-31T04:38:48.205Z,32.60
2022-07-31T04:40:54.993Z,32.60
2022-07-31T04:42:59.521Z,32.60
2022-07-31T04:45:04.700Z,32.60
2022-07-31T04:47:11.673Z,32.60
2022-07-31T04:49:20.130Z,32.60
2022-07-31T04:51:26.854Z,32.60
2022-07-31T04:53:31.356Z,32.60
2022-07-31T04:55:36.244Z,32.60
2022-07-31T04:57:41.955Z,32.60
2022-07-31T04:59:59.663Z,32.60
2022-07-31T05:02:08.427Z,32.50
2022-07-31T05:04:16.278Z,32.50
2022-07-31T05:06:21.214Z,32.40
2022-07-31T05:08:25.751Z,32.30
2022-07-31T05:10:44.971Z,32.20
2022-07-31T05:12:53.003Z,32.30
2022-07-31T05:14:57.582Z,32.30
2022-07-31T05:17:05.372Z,32.40
2022-07-31T05:19:31.388Z,32.40
2022-07-31T05:21:53.123Z,32.20
2022-07-31T05:24:22.693Z,32.20
2022-07-31T05:26:48.062Z,32.10
2022-07-31T05:28:58.126Z,32.00
2022-07-31T05:31:05.585Z,31.90
2022-07-31T05:33:10.258Z,31.90
2022-07-31T05:35:17.154Z,31.90
2022-07-31T05:37:21.812Z,31.90
2022-07-31T05:39:26.538Z,31.90
2022-07-31T05:41:52.432Z,31.80
2022-07-31T05:44:18.637Z,31.90
2022-07-31T05:46:26.191Z,31.90
2022-07-31T05:48:30.804Z,32.00
2022-07-31T05:50:38.020Z,32.10
2022-07-31T05:52:42.352Z,32.10
2022-07-31T05:54:59.838Z,32.10
2022-07-31T05:57:32.868Z,32.10
2022-07-31T05:59:42.028Z,32.20
2022-07-31T06:01:47.619Z,32.10
2022-07-31T06:03:52.733Z,32.10
2022-07-31T06:06:02.771Z,32.10
2022-07-31T06:08:07.485Z,32.20
2022-07-31T06:10:17.827Z,32.20
2022-07-31T06:12:24.412Z,32.20
2022-07-31T06:14:29.383Z,32.20
2022-07-31T06:16:51.930Z,32.30
2022-07-31T06:18:58.033Z,32.30
2022-07-31T06:21:04.022Z,32.30
2022-07-31T06:23:19.905Z,32.40
2022-07-31T06:25:38.893Z,32.30
2022-07-31T06:27:44.229Z,32.40
2022-07-31T06:29:57.385Z,32.50
2022-07-31T06:32:03.863Z,32.40
2022-07-31T06:34:09.240Z,32.50
2022-07-31T06:36:18.682Z,32.60
2022-07-31T06:38:32.306Z,32.60
2022-07-31T06:40:48.904Z,32.70
2022-07-31T06:43:11.782Z,32.90
2022-07-31T06:45:49.835Z,32.90
2022-07-31T06:48:18.290Z,32.90
2022-07-31T06:50:29.469Z,33.00
2022-07-31T06:52:55.287Z,33.10
2022-07-31T06:55:04.291Z,33.00
2022-07-31T06:57:09.394Z,33.00
2022-07-31T06:59:39.097Z,33.10
2022-07-31T07:01:40.675Z,32.90
2022-07-31T07:03:45.455Z,32.90
2022-07-31T07:05:51.894Z,32.90
2022-07-31T07:07:57.918Z,33.00
2022-07-31T07:10:02.605Z,33.00
2022-07-31T07:12:21.315Z,33.00
2022-07-31T07:14:29.559Z,32.90
2022-07-31T07:16:33.994Z,32.70
2022-07-31T07:18:44.003Z,32.60
2022-07-31T07:20:51.257Z,32.50
2022-07-31T07:22:55.566Z,32.50
2022-07-31T07:25:21.435Z,32.50
2022-07-31T07:27:30.843Z,32.30
2022-07-31T07:29:35.762Z,32.30
2022-07-31T07:31:42.341Z,32.20
2022-07-31T07:33:49.964Z,31.90
2022-07-31T07:36:00.885Z,31.50
2022-07-31T07:38:07.352Z,30.90
2022-07-31T07:40:14.804Z,30.80
2022-07-31T07:42:19.918Z,30.50
2022-07-31T07:44:28.944Z,30.30
2022-07-31T07:46:35.244Z,29.40
2022-07-31T07:48:41.286Z,29.80
2022-07-31T07:50:54.611Z,29.70
2022-07-31T07:53:08.210Z,29.70
2022-07-31T07:55:27.879Z,29.70
2022-07-31T07:57:56.442Z,29.60
2022-07-31T08:00:20.583Z,29.60
2022-07-31T08:02:32.029Z,29.40
2022-07-31T08:04:38.572Z,29.00
2022-07-31T08:06:43.748Z,28.80
2022-07-31T08:08:48.360Z,28.80
2022-07-31T08:11:05.926Z,28.90
2022-07-31T08:13:31.852Z,28.80
2022-07-31T08:15:48.897Z,28.50
2022-07-31T08:18:05.649Z,28.70
2022-07-31T08:20:13.733Z,28.90
2022-07-31T08:22:18.191Z,29.00
2022-07-31T08:24:22.948Z,29.20
2022-07-31T08:26:29.782Z,29.00
2022-07-31T08:28:37.492Z,29.00
2022-07-31T08:30:43.475Z,29.10
2022-07-31T08:32:51.872Z,29.00
2022-07-31T08:35:15.851Z,29.00
2022-07-31T08:38:01.304Z,29.10
2022-07-31T08:39:51.896Z,29.00
2022-07-31T08:41:56.474Z,29.00
2022-07-31T08:44:04.383Z,29.10
2022-07-31T08:46:11.916Z,29.20
2022-07-31T08:48:17.197Z,29.30
2022-07-31T08:50:26.549Z,29.30
2022-07-31T08:52:35.589Z,29.30
2022-07-31T08:54:54.722Z,29.30
2022-07-31T08:57:04.495Z,29.30
2022-07-31T08:59:10.246Z,29.30
2022-07-31T09:01:17.116Z,29.30
2022-07-31T09:03:23.939Z,29.20
2022-07-31T09:05:42.679Z,29.10
2022-07-31T09:07:50.446Z,29.00
2022-07-31T09:09:58.923Z,28.90
2022-07-31T09:12:04.711Z,28.90
2022-07-31T09:14:36.223Z,28.80
2022-07-31T09:16:51.260Z,28.80
2022-07-31T09:19:03.760Z,28.80
2022-07-31T09:21:28.711Z,28.80
2022-07-31T09:23:35.031Z,28.70
2022-07-31T09:25:39.568Z,28.60
2022-07-31T09:27:44.334Z,28.80
2022-07-31T09:29:50.936Z,28.60
2022-07-31T09:32:15.021Z,28.70
2022-07-31T09:34:39.549Z,28.80
2022-07-31T09:36:49.642Z,28.80
2022-07-31T09:39:27.184Z,28.90
2022-07-31T09:42:00.140Z,28.90
2022-07-31T09:44:43.681Z,28.90
2022-07-31T09:46:49.308Z,28.90
2022-07-31T09:48:56.685Z,28.80
2022-07-31T09:51:11.429Z,28.80
2022-07-31T09:53:16.286Z,28.80
2022-07-31T09:55:27.041Z,28.80
2022-07-31T09:57:31.813Z,28.80
2022-07-31T09:59:37.265Z,28.80
2022-07-31T10:01:44.868Z,28.80
2022-07-31T10:03:51.508Z,28.80
2022-07-31T10:05:56.458Z,28.80
2022-07-31T10:08:04.095Z,28.90
2022-07-31T10:10:25.893Z,28.90
2022-07-31T10:12:53.050Z,28.80
2022-07-31T10:14:59.449Z,28.80
2022-07-31T10:17:05.763Z,28.80
2022-07-31T10:19:33.542Z,28.80
2022-07-31T10:21:56.557Z,28.80
2022-07-31T10:24:06.301Z,28.80
2022-07-31T10:26:10.710Z,28.80
2022-07-31T10:28:18.383Z,28.80
2022-07-31T10:30:28.183Z,28.80
2022-07-31T10:32:36.498Z,28.80
2022-07-31T10:34:53.135Z,28.80
2022-07-31T10:37:47.860Z,28.80
2022-07-31T10:40:32.503Z,28.80
2022-07-31T10:43:01.367Z,28.80
2022-07-31T10:45:09.899Z,28.80
2022-07-31T10:47:24.849Z,28.70
2022-07-31T10:49:52.511Z,28.70
2022-07-31T10:51:57.268Z,28.70
2022-07-31T10:54:15.280Z,28.60
2022-07-31T10:56:43.731Z,28.60
2022-07-31T10:59:02.659Z,28.70
2022-07-31T11:01:27.555Z,28.70
2022-07-31T11:03:54.451Z,28.70
2022-07-31T11:06:11.131Z,28.60
2022-07-31T11:08:27.770Z,28.60
2022-07-31T11:10:41.982Z,28.60
2022-07-31T11:13:02.539Z,28.60
2022-07-31T11:15:23.632Z,28.60
2022-07-31T11:18:20.173Z,28.50
2022-07-31T11:20:32.390Z,28.50
2022-07-31T11:22:36.739Z,28.50
2022-07-31T11:24:41.561Z,28.50
2022-07-31T11:27:02.689Z,28.60
2022-07-31T11:29:58.625Z,28.50
2022-07-31T11:31:32.337Z,28.50
2022-07-31T11:33:44.933Z,28.50
2022-07-31T11:35:49.469Z,28.50
2022-07-31T11:37:58.503Z,28.40
2022-07-31T11:40:07.134Z,28.40
2022-07-31T11:42:11.627Z,28.50
2022-07-31T11:44:23.804Z,28.50
2022-07-31T11:46:34.306Z,28.50
2022-07-31T11:48:44.959Z,28.40
2022-07-31T11:50:50.875Z,28.40
2022-07-31T11:53:04.687Z,28.50
2022-07-31T11:55:12.753Z,28.40
2022-07-31T11:57:19.383Z,28.40
2022-07-31T11:59:45.411Z,28.40
2022-07-31T12:01:52.014Z,28.40
2022-07-31T12:04:07.623Z,28.40
2022-07-31T12:06:14.174Z,28.40
2022-07-31T12:08:19.364Z,28.40
2022-07-31T12:10:23.963Z,28.40
2022-07-31T12:12:42.481Z,28.40
2022-07-31T12:14:46.845Z,28.40
2022-07-31T12:19:11.143Z,28.30
2022-07-31T12:21:15.568Z,28.40
2022-07-31T12:23:40.949Z,28.30
2022-07-31T12:25:51.342Z,28.30
2022-07-31T12:27:57.036Z,28.30
2022-07-31T12:30:03.948Z,28.30
2022-07-31T12:32:09.903Z,28.30
2022-07-31T12:34:26.463Z,28.30
2022-07-31T12:36:32.982Z,28.20
2022-07-31T12:38:44.738Z,28.30
2022-07-31T12:41:03.004Z,28.30
2022-07-31T12:43:08.324Z,28.30
2022-07-31T12:45:20.094Z,28.20
2022-07-31T12:47:31.943Z,28.20
2022-07-31T12:49:37.903Z,28.20
2022-07-31T12:51:47.678Z,28.20
2022-07-31T12:53:52.582Z,28.20
2022-07-31T12:55:59.457Z,28.20
2022-07-31T12:58:06.204Z,28.20
2022-07-31T13:00:11.840Z,28.30
2022-07-31T13:02:16.707Z,28.20
2022-07-31T13:04:22.975Z,28.10
2022-07-31T13:06:29.765Z,28.10
2022-07-31T13:08:34.637Z,28.10
2022-07-31T13:10:41.006Z,28.10
2022-07-31T13:12:45.475Z,28.10
2022-07-31T13:14:52.271Z,28.10
2022-07-31T13:16:58.477Z,28.10
2022-07-31T13:19:03.157Z,28.10
2022-07-31T13:21:07.833Z,28.00
2022-07-31T13:23:13.880Z,28.00
2022-07-31T13:25:19.300Z,28.00
2022-07-31T13:27:26.841Z,28.00
2022-07-31T13:29:33.294Z,28.00
2022-07-31T13:31:38.144Z,28.00
2022-07-31T13:33:44.978Z,27.90
2022-07-31T13:35:51.300Z,28.00
2022-07-31T13:37:56.190Z,28.00
2022-07-31T13:40:00.843Z,27.90
2022-07-31T13:42:07.214Z,28.00
2022-07-31T13:44:13.347Z,27.90
2022-07-31T13:46:17.640Z,27.90
2022-07-31T13:48:22.496Z,27.90
2022-07-31T13:50:26.771Z,27.80
2022-07-31T13:52:33.195Z,27.90
2022-07-31T13:54:39.511Z,27.80
2022-07-31T13:56:43.984Z,27.80
2022-07-31T13:58:48.419Z,27.80
2022-07-31T14:00:55.611Z,27.80
2022-07-31T14:03:00.102Z,27.80
2022-07-31T14:05:07.414Z,27.80
2022-07-31T14:07:14.015Z,27.70
2022-07-31T14:09:18.796Z,27.70
2022-07-31T14:11:25.187Z,27.80
2022-07-31T14:13:31.712Z,27.70
2022-07-31T14:15:36.201Z,27.70
2022-07-31T14:17:40.930Z,27.70
2022-07-31T14:19:46.018Z,27.80
2022-07-31T14:21:56.655Z,27.80
2022-07-31T14:24:04.035Z,27.80
2022-07-31T14:26:13.128Z,27.90
2022-07-31T14:28:18.064Z,27.80
2022-07-31T14:30:24.711Z,27.80
2022-07-31T14:32:32.593Z,27.80
2022-07-31T14:34:37.250Z,27.80
2022-07-31T14:36:41.770Z,27.90
2022-07-31T14:38:48.391Z,27.90
2022-07-31T14:40:52.785Z,27.90
2022-07-31T14:42:59.388Z,27.90
2022-07-31T14:45:07.794Z,27.90
2022-07-31T14:47:12.797Z,27.90
2022-07-31T14:49:19.253Z,27.90
2022-07-31T14:51:26.101Z,27.80
2022-07-31T14:53:30.821Z,27.80
2022-07-31T14:55:37.371Z,27.80
2022-07-31T14:57:43.999Z,27.80
2022-07-31T14:59:48.427Z,27.80
2022-07-31T15:01:55.166Z,27.80
2022-07-31T15:04:00.038Z,27.80
2022-07-31T15:06:53.672Z,27.80
2022-07-31T15:08:31.674Z,27.80
2022-07-31T15:10:38.112Z,27.80
2022-07-31T15:12:42.770Z,27.80
2022-07-31T15:14:49.216Z,27.80
2022-07-31T15:16:55.503Z,27.80
2022-07-31T15:19:00.475Z,27.80
2022-07-31T15:21:07.007Z,27.80
2022-07-31T15:23:16.304Z,27.70
2022-07-31T15:25:20.871Z,27.70
2022-07-31T15:27:29.297Z,27.60
2022-07-31T15:30:00.694Z,27.70
2022-07-31T15:32:00.528Z,27.70
2022-07-31T15:34:07.117Z,27.70
2022-07-31T15:36:15.245Z,27.70
2022-07-31T15:38:20.218Z,27.60
2022-07-31T15:40:25.933Z,27.70
2022-07-31T15:42:33.000Z,27.70
2022-07-31T15:44:37.501Z,27.70
2022-07-31T15:46:42.230Z,27.60
2022-07-31T15:48:47.182Z,27.60
2022-07-31T15:50:52.028Z,27.60
2022-07-31T15:52:57.839Z,27.70
2022-07-31T15:55:04.442Z,27.70
2022-07-31T15:57:08.976Z,27.70
2022-07-31T15:59:15.438Z,27.60
2022-07-31T16:01:21.806Z,27.60
2022-07-31T16:03:47.212Z,27.60
2022-07-31T16:05:55.843Z,27.60
2022-07-31T16:08:28.878Z,27.60
2022-07-31T16:10:29.563Z,27.60
2022-07-31T16:12:36.073Z,27.60
2022-07-31T16:14:42.637Z,27.50
2022-07-31T16:16:46.993Z,27.60
2022-07-31T16:18:58.686Z,27.60
2022-07-31T16:21:04.999Z,27.50
2022-07-31T16:23:14.332Z,27.50
2022-07-31T16:25:19.905Z,27.60
2022-07-31T16:27:26.557Z,27.60
2022-07-31T16:29:59.839Z,27.60
2022-07-31T16:31:59.655Z,27.60
2022-07-31T16:34:05.827Z,27.60
2022-07-31T16:36:10.580Z,27.60
2022-07-31T16:38:17.695Z,27.60
2022-07-31T16:40:28.876Z,27.60
2022-07-31T16:42:36.245Z,27.60
2022-07-31T16:44:42.598Z,27.60
2022-07-31T16:46:54.244Z,27.60
2022-07-31T16:48:59.229Z,27.60
2022-07-31T16:51:04.499Z,27.60
2022-07-31T16:53:13.597Z,27.60
2022-07-31T16:55:59.461Z,27.50
2022-07-31T16:58:01.989Z,27.50
2022-07-31T17:00:08.793Z,27.60
2022-07-31T17:02:15.210Z,27.60
2022-07-31T17:04:20.914Z,27.60
2022-07-31T17:06:36.805Z,27.60
2022-07-31T17:08:44.909Z,27.60
2022-07-31T17:10:52.603Z,27.70
2022-07-31T17:12:59.037Z,27.60
2022-07-31T17:15:03.443Z,27.70
2022-07-31T17:17:10.366Z,27.70
2022-07-31T17:19:41.712Z,27.70
2022-07-31T17:21:45.558Z,27.70
2022-07-31T17:23:52.253Z,27.70
2022-07-31T17:25:58.186Z,27.60
2022-07-31T17:28:02.764Z,27.60
2022-07-31T17:30:12.267Z,27.60
2022-07-31T17:32:19.024Z,27.60
2022-07-31T17:34:23.617Z,27.60
2022-07-31T17:36:30.267Z,27.60
2022-07-31T17:38:36.965Z,27.60
2022-07-31T17:40:43.940Z,27.60
2022-07-31T17:42:48.863Z,27.50
2022-07-31T17:44:56.570Z,27.50
2022-07-31T17:47:03.818Z,27.50
2022-07-31T17:49:12.246Z,27.50
2022-07-31T17:51:25.819Z,27.40
2022-07-31T17:53:54.655Z,27.50
2022-07-31T17:55:55.925Z,27.50
2022-07-31T17:58:02.494Z,27.50
2022-07-31T18:00:09.253Z,27.40
2022-07-31T18:02:16.187Z,27.40
2022-07-31T18:04:25.577Z,27.50
2022-07-31T18:06:31.093Z,27.40
2022-07-31T18:08:37.907Z,27.40
2022-07-31T18:10:54.060Z,27.40
2022-07-31T18:13:02.447Z,27.40
2022-07-31T18:15:10.843Z,27.40
2022-07-31T18:17:18.008Z,27.40
2022-07-31T18:19:23.009Z,27.50
2022-07-31T18:21:29.549Z,27.40
2022-07-31T18:23:34.022Z,27.40
2022-07-31T18:25:38.842Z,27.40
2022-07-31T18:27:47.955Z,27.30
2022-07-31T18:29:56.434Z,27.40
2022-07-31T18:32:03.422Z,27.50
2022-07-31T18:34:10.618Z,27.40
2022-07-31T18:36:18.508Z,27.40
2022-07-31T18:38:24.343Z,27.50
2022-07-31T18:40:31.314Z,27.50
2022-07-31T18:42:37.653Z,27.50
2022-07-31T18:44:43.161Z,27.40
2022-07-31T18:46:47.931Z,27.40
2022-07-31T18:48:56.631Z,27.50
2022-07-31T18:51:05.533Z,27.50
2022-07-31T18:53:12.310Z,27.50
2022-07-31T18:55:18.937Z,27.50
2022-07-31T18:57:23.911Z,27.50
2022-07-31T18:59:31.931Z,27.50
2022-07-31T19:01:38.390Z,27.50
2022-07-31T19:03:48.609Z,27.50
2022-07-31T19:05:57.696Z,27.60
2022-07-31T19:08:06.421Z,27.60
2022-07-31T19:10:10.874Z,27.60
2022-07-31T19:12:33.960Z,27.50
2022-07-31T19:14:41.282Z,27.50
2022-07-31T19:16:46.331Z,27.50
2022-07-31T19:18:56.664Z,27.50
2022-07-31T19:21:21.236Z,27.50
2022-07-31T19:23:29.318Z,27.50
2022-07-31T19:25:53.966Z,27.50
2022-07-31T19:28:03.924Z,27.50
2022-07-31T19:30:10.701Z,27.50
2022-07-31T19:32:17.135Z,27.50
2022-07-31T19:34:24.587Z,27.50
2022-07-31T19:36:30.107Z,27.50
2022-07-31T19:38:39.471Z,27.40
2022-07-31T19:40:44.068Z,27.40
2022-07-31T19:42:48.860Z,27.40
2022-07-31T19:44:55.353Z,27.40
2022-07-31T19:47:02.930Z,27.40
2022-07-31T19:49:07.477Z,27.40
2022-07-31T19:51:15.372Z,27.40
2022-07-31T19:53:22.168Z,27.40
2022-07-31T19:55:28.055Z,27.30
2022-07-31T19:57:43.835Z,27.30
2022-07-31T19:59:50.998Z,27.30
2022-07-31T20:01:55.362Z,27.30
2022-07-31T20:04:01.799Z,27.30
2022-07-31T20:06:08.264Z,27.30
2022-07-31T20:08:13.254Z,27.30
2022-07-31T20:10:19.606Z,27.30
2022-07-31T20:12:26.495Z,27.30
2022-07-31T20:14:31.201Z,27.30
2022-07-31T20:16:37.919Z,27.30
2022-07-31T20:18:43.100Z,27.30
2022-07-31T20:20:47.558Z,27.30
2022-07-31T20:22:54.570Z,27.30
2022-07-31T20:25:00.951Z,27.30
2022-07-31T20:27:16.438Z,27.30
2022-07-31T20:29:26.379Z,27.30
2022-07-31T20:31:32.991Z,27.30
2022-07-31T20:33:39.246Z,27.30
2022-07-31T20:35:48.938Z,27.30
2022-07-31T20:37:56.750Z,27.30
2022-07-31T20:40:01.957Z,27.30
2022-07-31T20:42:07.189Z,27.30
2022-07-31T20:44:14.061Z,27.30
2022-07-31T20:46:19.282Z,27.30
2022-07-31T20:48:27.171Z,27.30
2022-07-31T20:50:33.583Z,27.30
2022-07-31T20:52:38.647Z,27.30
2022-07-31T20:54:45.156Z,27.20
2022-07-31T20:56:51.412Z,27.20
2022-07-31T20:58:56.031Z,27.30
2022-07-31T21:01:02.575Z,27.30
2022-07-31T21:03:09.025Z,27.20
2022-07-31T21:05:13.435Z,27.30
2022-07-31T21:07:33.939Z,27.30
2022-07-31T21:09:41.986Z,27.30
2022-07-31T21:11:46.360Z,27.30
2022-07-31T21:13:53.156Z,27.30
2022-07-31T21:16:01.573Z,27.30
2022-07-31T21:18:06.724Z,27.20
2022-07-31T21:20:14.016Z,27.20
2022-07-31T21:22:20.629Z,27.20
2022-07-31T21:24:25.348Z,27.20
2022-07-31T21:26:32.701Z,27.30
2022-07-31T21:28:37.963Z,27.30
2022-07-31T21:30:42.614Z,27.30
2022-07-31T21:32:49.524Z,27.20
2022-07-31T21:34:58.541Z,27.30
2022-07-31T21:37:03.471Z,27.20
2022-07-31T21:39:18.554Z,27.30
2022-07-31T21:41:25.687Z,27.30
2022-07-31T21:43:37.205Z,27.30
2022-07-31T21:46:02.012Z,27.30
2022-07-31T21:48:14.199Z,27.30
2022-07-31T21:50:28.760Z,27.30
2022-07-31T21:52:33.819Z,27.20
2022-07-31T21:54:40.892Z,27.10
2022-07-31T21:56:45.329Z,27.10
2022-07-31T21:58:52.004Z,27.20
2022-07-31T22:00:58.416Z,27.20
2022-07-31T22:03:03.956Z,27.20
2022-07-31T22:05:23.358Z,27.20
2022-07-31T22:07:33.758Z,27.20
2022-07-31T22:09:38.776Z,27.20
2022-07-31T22:12:00.076Z,27.20
2022-07-31T22:14:09.730Z,27.20
2022-07-31T22:16:13.960Z,27.20
2022-07-31T22:18:20.867Z,27.30
2022-07-31T22:20:27.109Z,27.20
2022-07-31T22:22:31.812Z,27.30
2022-07-31T22:24:38.306Z,27.30
2022-07-31T22:27:02.470Z,27.20
2022-07-31T22:29:07.664Z,27.20
2022-07-31T22:31:14.145Z,27.20
2022-07-31T22:33:20.405Z,27.20
2022-07-31T22:35:27.226Z,27.20
2022-07-31T22:37:34.490Z,27.20
2022-07-31T22:39:40.833Z,27.20
2022-07-31T22:41:45.674Z,27.20
2022-07-31T22:44:13.951Z,27.20
2022-07-31T22:46:17.044Z,27.20
2022-07-31T22:48:22.770Z,27.20
2022-07-31T22:50:29.421Z,27.20
2022-07-31T22:52:36.807Z,27.20
2022-07-31T22:54:42.042Z,27.20
2022-07-31T22:56:48.837Z,27.30
2022-07-31T22:58:55.897Z,27.30
2022-07-31T23:01:00.472Z,27.30
2022-07-31T23:03:07.501Z,27.30
2022-07-31T23:05:13.882Z,27.30
2022-07-31T23:07:18.910Z,27.30
2022-07-31T23:09:26.452Z,27.30
2022-07-31T23:11:31.583Z,27.30
2022-07-31T23:13:36.010Z,27.30
2022-07-31T23:15:41.875Z,27.30
2022-07-31T23:17:48.252Z,27.40
2022-07-31T23:19:54.331Z,27.30
2022-07-31T23:22:01.241Z,27.40
2022-07-31T23:24:08.248Z,27.40
2022-07-31T23:26:12.791Z,27.40
2022-07-31T23:28:19.439Z,27.40
2022-07-31T23:30:25.299Z,27.40
2022-07-31T23:32:29.904Z,27.50
2022-07-31T23:34:37.426Z,27.40
2022-07-31T23:36:46.679Z,27.50
2022-07-31T23:38:52.630Z,27.50
2022-07-31T23:40:59.323Z,27.50
2022-07-31T23:43:05.819Z,27.50
2022-07-31T23:45:12.267Z,27.50
2022-07-31T23:47:19.307Z,27.50
2022-07-31T23:49:24.311Z,27.50
2022-07-31T23:51:28.749Z,27.50
2022-07-31T23:53:33.269Z,27.50
2022-07-31T23:55:42.856Z,27.60
2022-07-31T23:57:47.621Z,27.60
2022-07-31T23:59:54.267Z,27.60
